Time;durP1;ratioP1;P1;durP2;ratioP2;P2;SDS_P1;SDS_P2;PMS_P1;PMS_P2;Temp;Humidity;BMP_temperature;BMP_pressure;BME280_temperature;BME280_humidity;BME280_pressure;Samples;Min_cycle;Max_cycle;Signal;HPM_P1;HPM_P2
2021/01/17 00:04:45;;;;;;;12.10;6.00;;;;;;;-6.80;83.57;98236.27;489668;1148;104777;-41
2021/01/17 00:14:49;;;;;;;16.87;6.90;;;;;;;-7.25;82.99;98258.92;489632;1146;104521;-41
2021/01/17 00:24:55;;;;;;;11.13;4.10;;;;;;;-7.70;82.37;98250.65;489655;1148;104524;-40
2021/01/17 00:34:59;;;;;;;12.30;5.70;;;;;;;-7.81;81.96;98265.17;489612;1148;104553;-39
2021/01/17 00:45:04;;;;;;;12.27;6.47;;;;;;;-7.84;82.76;98270.53;489824;1148;104613;-40
2021/01/17 00:55:10;;;;;;;15.35;8.45;;;;;;;-8.11;81.93;98270.16;489577;1148;104539;-42
2021/01/17 01:05:15;;;;;;;18.77;7.60;;;;;;;-8.19;82.55;98298.17;489982;1148;104543;-41
2021/01/17 01:15:18;;;;;;;14.27;6.87;;;;;;;-8.33;81.64;98291.55;489729;1148;104564;-40
2021/01/17 01:25:23;;;;;;;20.67;8.97;;;;;;;-8.52;81.64;98289.61;489747;1148;104877;-44
2021/01/17 01:35:31;;;;;;;16.50;7.80;;;;;;;-8.75;81.64;98293.16;489609;1148;104867;-40
2021/01/17 01:45:36;;;;;;;21.63;9.63;;;;;;;-8.87;81.84;98302.57;489662;1148;104554;-40
2021/01/17 01:55:42;;;;;;;21.07;9.00;;;;;;;-9.00;82.08;98294.16;489741;1148;104552;-41
2021/01/17 02:05:51;;;;;;;27.07;10.67;;;;;;;-9.07;81.58;98318.61;489832;1147;104784;-39
2021/01/17 02:15:59;;;;;;;18.17;9.63;;;;;;;-9.13;81.48;98335.26;490844;1107;104860;-40
2021/01/17 02:26:04;;;;;;;19.40;10.10;;;;;;;-9.12;81.98;98336.08;489640;1148;104525;-40
2021/01/17 02:36:11;;;;;;;17.95;8.80;;;;;;;-9.25;81.77;98333.59;489891;1148;104514;-40
2021/01/17 02:46:16;;;;;;;21.97;9.40;;;;;;;-9.31;82.20;98346.84;489735;1148;105048;-40
2021/01/17 02:56:24;;;;;;;20.23;10.07;;;;;;;-9.51;81.87;98350.84;489886;1148;104885;-41
2021/01/17 03:06:29;;;;;;;15.78;8.55;;;;;;;-9.68;81.61;98358.94;489864;1145;104514;-42
2021/01/17 03:16:35;;;;;;;20.57;10.23;;;;;;;-9.79;82.12;98371.66;489705;1148;104912;-41
2021/01/17 03:26:40;;;;;;;20.00;8.60;;;;;;;-9.92;81.75;98377.66;489749;1148;104516;-41
2021/01/17 03:36:44;;;;;;;18.77;9.23;;;;;;;-9.92;81.94;98374.28;489853;1148;104864;-40
2021/01/17 03:46:48;;;;;;;18.40;7.50;;;;;;;-9.91;82.00;98374.17;489787;1148;104866;-40
2021/01/17 03:56:54;;;;;;;22.90;8.17;;;;;;;-9.95;82.29;98384.70;489880;1148;104467;-40
2021/01/17 04:06:59;;;;;;;16.75;7.15;;;;;;;-9.84;82.09;98389.91;489759;1148;104629;-42
2021/01/17 04:17:04;;;;;;;18.63;7.50;;;;;;;-9.86;81.26;98393.50;489616;1148;104529;-43
2021/01/17 04:27:08;;;;;;;15.50;7.77;;;;;;;-9.92;82.23;98403.23;489689;1148;104672;-42
2021/01/17 04:37:13;;;;;;;24.40;11.40;;;;;;;-9.92;82.29;98398.13;489844;1148;104514;-39
2021/01/17 04:47:17;;;;;;;23.40;11.47;;;;;;;-9.99;81.49;98414.80;489751;1148;104793;-42
2021/01/17 05:18:08;;;;;;;27.03;13.13;;;;;;;-10.09;81.31;98447.05;489747;1150;104589;-41
2021/01/17 05:28:12;;;;;;;22.53;12.23;;;;;;;-10.15;81.85;98460.27;489697;1149;104522;-42
2021/01/17 05:38:17;;;;;;;28.47;10.90;;;;;;;-10.11;81.84;98474.47;489724;1149;104538;-40
2021/01/17 05:48:22;;;;;;;25.40;12.73;;;;;;;-10.36;81.26;98479.63;489776;1149;104441;-40
2021/01/17 05:58:25;;;;;;;24.30;12.63;;;;;;;-10.44;81.06;98486.97;489788;1148;104625;-40
2021/01/17 06:08:31;;;;;;;25.40;13.15;;;;;;;-10.40;81.86;98501.20;489877;1149;104684;-40
2021/01/17 06:18:36;;;;;;;28.40;14.90;;;;;;;-10.42;81.10;98514.06;489811;1149;104521;-40
2021/01/17 06:28:42;;;;;;;29.23;14.33;;;;;;;-10.50;81.54;98520.61;489709;1149;104886;-41
2021/01/17 06:38:47;;;;;;;34.73;16.20;;;;;;;-10.52;81.53;98536.04;489819;1148;104447;-41
2021/01/17 06:48:52;;;;;;;30.85;13.55;;;;;;;-10.56;81.48;98555.87;489833;1148;104459;-41
2021/01/17 06:58:56;;;;;;;32.00;14.37;;;;;;;-10.67;81.35;98565.12;489661;1148;104570;-41
2021/01/17 07:09:00;;;;;;;31.23;16.37;;;;;;;-10.72;80.89;98588.42;489918;1148;104520;-40
2021/01/17 07:19:05;;;;;;;43.45;16.35;;;;;;;-10.60;81.26;98602.98;489948;1148;104452;-42
2021/01/17 07:29:14;;;;;;;34.45;16.25;;;;;;;-10.66;81.07;98611.02;489877;1148;104516;-41
2021/01/17 07:39:18;;;;;;;32.27;15.10;;;;;;;-10.61;80.95;98618.41;489963;1148;104845;-40
2021/01/17 07:49:22;;;;;;;39.53;16.73;;;;;;;-10.67;81.45;98624.70;489739;1149;104828;-42
2021/01/17 07:59:27;;;;;;;36.53;15.47;;;;;;;-10.71;80.31;98622.45;489640;1149;105078;-40
2021/01/17 08:09:50;;;;;;;33.83;16.53;;;;;;;-10.47;80.60;98635.41;489749;1149;104921;-42
2021/01/17 08:19:56;;;;;;;35.03;17.23;;;;;;;-10.40;80.38;98647.72;489797;1148;104553;-41
2021/01/17 08:30:19;;;;;;;39.70;18.47;;;;;;;-10.40;80.82;98649.45;489816;1148;104575;-40
2021/01/17 08:40:44;;;;;;;28.80;15.60;;;;;;;-10.45;80.37;98662.50;489719;1149;105701;-41
2021/01/17 08:50:50;;;;;;;26.95;14.75;;;;;;;-10.00;80.33;98686.83;489859;1148;104874;-42
2021/01/17 09:01:06;;;;;;;35.87;17.77;;;;;;;-9.79;80.92;98704.26;489744;1148;104431;-40
2021/01/17 09:11:29;;;;;;;40.33;18.57;;;;;;;-9.68;80.43;98723.13;489922;1148;104559;-41
2021/01/17 09:21:34;;;;;;;40.03;19.80;;;;;;;-9.72;80.62;98736.20;489821;1148;104537;-40
2021/01/17 09:31:39;;;;;;;42.00;17.03;;;;;;;-10.00;79.95;98742.28;489644;1148;104499;-42
2021/01/17 09:41:45;;;;;;;51.77;21.53;;;;;;;-9.68;80.00;98747.90;489860;1148;104508;-42
2021/01/17 09:51:50;;;;;;;30.50;15.47;;;;;;;-9.42;79.94;98741.88;489850;1146;104550;-39
2021/01/17 10:02:00;;;;;;;48.65;22.40;;;;;;;-9.09;80.21;98738.80;489737;1148;104446;-41
2021/01/17 10:12:06;;;;;;;53.10;21.13;;;;;;;-8.99;79.26;98742.39;489770;1148;104886;-42
2021/01/17 10:22:11;;;;;;;35.13;18.37;;;;;;;-9.05;79.40;98750.47;489786;1145;104522;-40
2021/01/17 10:42:38;;;;;;;48.13;18.63;;;;;;;-8.32;78.83;98770.19;489807;1148;105571;-40
2021/01/17 10:52:58;;;;;;;33.37;16.47;;;;;;;-8.08;79.62;98776.15;489654;1149;104576;-42
2021/01/17 11:03:02;;;;;;;45.47;18.63;;;;;;;-7.97;78.55;98780.53;489836;1148;104519;-42
2021/01/17 11:13:15;;;;;;;40.20;19.30;;;;;;;-7.85;78.89;98783.95;489669;1148;104825;-40
2021/01/17 11:23:18;;;;;;;36.73;18.57;;;;;;;-7.88;78.70;98773.91;489702;1148;104871;-41
2021/01/17 11:33:29;;;;;;;53.17;23.73;;;;;;;-8.06;78.32;98794.81;489842;1148;104783;-40
2021/01/17 11:43:34;;;;;;;39.33;17.00;;;;;;;-7.88;78.46;98797.02;489758;1148;104918;-42
2021/01/17 11:53:39;;;;;;;37.70;18.57;;;;;;;-7.67;78.32;98800.61;489838;1148;104921;-40
2021/01/17 12:14:03;;;;;;;33.00;18.10;;;;;;;-7.47;78.15;98789.72;489722;1148;104902;-40
2021/01/17 12:24:11;;;;;;;34.13;17.80;;;;;;;-7.57;77.79;98788.77;489742;1148;104530;-40
2021/01/17 12:34:17;;;;;;;28.70;13.80;;;;;;;-7.81;77.62;98793.92;489676;1146;105666;-39
2021/01/17 12:44:21;;;;;;;53.70;22.90;;;;;;;-8.18;77.31;98805.96;489823;1148;104534;-40
2021/01/17 12:54:26;;;;;;;62.40;25.40;;;;;;;-8.48;76.75;98798.69;489731;1148;106054;-40
2021/01/17 13:04:30;;;;;;;60.63;25.53;;;;;;;-8.55;76.99;98817.14;489592;1148;104591;-41
2021/01/17 13:14:34;;;;;;;66.90;26.17;;;;;;;-8.61;77.57;98820.14;489588;1148;104966;-41
2021/01/17 13:24:40;;;;;;;65.20;23.70;;;;;;;-8.72;76.74;98824.26;489773;1148;104777;-39
2021/01/17 13:34:44;;;;;;;75.80;29.47;;;;;;;-8.94;77.10;98847.12;489599;1148;104622;-40
2021/01/17 13:44:50;;;;;;;71.80;29.67;;;;;;;-8.99;77.20;98851.70;489581;1148;104920;-39
2021/01/17 13:54:54;;;;;;;55.87;24.50;;;;;;;-9.10;77.56;98862.67;489688;1149;104508;-42
2021/01/17 14:04:59;;;;;;;62.50;28.63;;;;;;;-9.40;77.43;98880.85;489706;1148;104561;-40
2021/01/17 14:15:02;;;;;;;82.27;31.50;;;;;;;-9.57;77.44;98883.66;489740;1148;104930;-41
2021/01/17 14:25:09;;;;;;;74.47;30.37;;;;;;;-9.71;77.62;98876.02;489777;1148;104505;-42
2021/01/17 14:35:14;;;;;;;79.97;31.90;;;;;;;-9.73;77.94;98890.64;489650;1149;105055;-41
2021/01/17 14:45:19;;;;;;;171.43;57.07;;;;;;;-9.95;77.41;98907.33;489720;1148;104515;-39
2021/01/17 14:55:25;;;;;;;116.63;42.53;;;;;;;-10.19;76.61;98931.83;489622;1148;104494;-42
2021/01/17 15:05:29;;;;;;;98.67;44.60;;;;;;;-10.36;77.42;98949.97;489692;1148;104512;-40
2021/01/17 15:15:34;;;;;;;105.00;39.20;;;;;;;-10.47;76.83;98955.70;489556;1148;104502;-42
2021/01/17 15:25:38;;;;;;;67.30;29.87;;;;;;;-10.62;77.57;98962.54;489714;1148;104580;-40
2021/01/17 15:35:43;;;;;;;69.70;27.03;;;;;;;-10.77;77.69;98962.59;489407;1148;104815;-40
2021/01/17 15:45:48;;;;;;;80.40;34.20;;;;;;;-10.91;77.50;98953.14;489690;1148;104550;-40
2021/01/17 15:55:53;;;;;;;72.77;34.07;;;;;;;-11.15;77.33;98952.80;489817;1148;104545;-40
2021/01/17 16:06:00;;;;;;;76.05;30.95;;;;;;;-11.24;77.89;98956.70;489620;1148;104492;-40
2021/01/17 16:26:26;;;;;;;69.75;30.85;;;;;;;-11.52;77.96;98974.44;489576;1148;104621;-40
2021/01/17 16:36:31;;;;;;;74.70;32.07;;;;;;;-11.68;77.64;98976.98;489947;1148;104935;-40
2021/01/17 16:46:38;;;;;;;83.13;32.80;;;;;;;-12.06;76.97;98985.84;489649;1146;104514;-41
2021/01/17 16:56:43;;;;;;;75.97;33.23;;;;;;;-12.31;77.38;98997.30;489812;1148;104458;-42
2021/01/17 17:06:47;;;;;;;81.43;32.37;;;;;;;-12.69;77.01;99016.23;489917;1148;104666;-40
2021/01/17 17:16:52;;;;;;;80.60;31.33;;;;;;;-12.71;77.59;99013.77;489817;1148;104860;-39
2021/01/17 17:26:57;;;;;;;101.87;40.00;;;;;;;-12.99;77.13;99023.64;489697;1148;104569;-40
2021/01/17 17:37:05;;;;;;;133.50;53.40;;;;;;;-13.34;77.08;99026.95;489631;1148;104513;-39
2021/01/17 17:47:09;;;;;;;168.62;62.13;;;;;;;-13.59;77.14;99043.41;489645;1148;104881;-41
2021/01/17 17:57:14;;;;;;;140.65;58.55;;;;;;;-13.74;76.96;99047.44;489790;1148;104604;-39
2021/01/17 18:07:19;;;;;;;163.95;60.80;;;;;;;-13.72;77.42;99054.14;489741;1148;104523;-41
2021/01/17 18:17:24;;;;;;;166.30;68.90;;;;;;;-13.81;77.03;99064.69;489937;1148;104973;-40
2021/01/17 18:27:29;;;;;;;190.55;72.70;;;;;;;-13.83;77.11;99071.56;489782;1148;104444;-40
2021/01/17 18:37:35;;;;;;;266.80;100.25;;;;;;;-13.99;76.87;99071.39;489701;1148;104827;-42
2021/01/17 18:58:00;;;;;;;337.00;122.20;;;;;;;-13.47;77.53;99084.38;489608;1148;104514;-40
2021/01/17 19:08:07;;;;;;;339.00;129.35;;;;;;;-13.30;77.66;99064.97;489799;1148;104524;-42
2021/01/17 19:18:11;;;;;;;324.17;120.80;;;;;;;-13.19;77.80;99072.95;489847;1148;104516;-40
2021/01/17 19:28:16;;;;;;;273.30;104.27;;;;;;;-13.22;77.57;99075.64;489903;1148;104506;-42
2021/01/17 19:38:20;;;;;;;247.47;95.20;;;;;;;-13.02;77.71;99090.75;489690;1148;104606;-40
2021/01/17 19:48:26;;;;;;;222.25;84.25;;;;;;;-12.98;77.92;99099.92;489711;1148;104578;-42
2021/01/17 19:58:30;;;;;;;164.27;68.43;;;;;;;-13.06;78.05;99094.34;489763;1148;105141;-42
2021/01/17 20:08:34;;;;;;;164.67;64.67;;;;;;;-12.98;78.07;99104.19;489865;1146;104467;-42
2021/01/17 20:18:39;;;;;;;240.93;82.70;;;;;;;-12.86;77.75;99106.16;489830;1148;104623;-41
2021/01/17 20:28:44;;;;;;;205.57;74.50;;;;;;;-12.98;77.32;99120.29;489665;1147;105596;-42
2021/01/17 20:38:52;;;;;;;215.87;79.07;;;;;;;-13.08;77.56;99124.13;489836;1148;104517;-40
2021/01/17 20:48:57;;;;;;;230.07;83.23;;;;;;;-13.11;77.72;99114.92;489877;1148;104501;-42
2021/01/17 20:59:03;;;;;;;187.40;71.90;;;;;;;-13.13;78.09;99121.80;489896;1148;104514;-39
2021/01/17 21:09:07;;;;;;;172.70;66.53;;;;;;;-13.02;77.64;99119.58;489935;1148;104450;-39
2021/01/17 21:19:28;;;;;;;166.07;63.80;;;;;;;-12.81;78.24;99119.48;489570;1148;104610;-41
2021/01/17 21:29:34;;;;;;;191.90;69.10;;;;;;;-12.77;77.97;99131.20;489682;1148;104512;-40
2021/01/17 21:39:38;;;;;;;167.03;60.03;;;;;;;-12.72;78.10;99129.27;489836;1146;104519;-40
2021/01/17 21:49:43;;;;;;;162.03;64.33;;;;;;;-12.59;77.68;99115.03;489572;1148;104519;-40
2021/01/17 22:10:00;;;;;;;160.67;63.70;;;;;;;-12.73;78.39;99113.16;490655;1146;104488;-39
2021/01/17 22:20:09;;;;;;;174.77;66.53;;;;;;;-12.66;77.80;99128.97;490939;1147;104498;-42
2021/01/17 22:30:16;;;;;;;156.10;65.67;;;;;;;-12.52;78.54;99129.14;490569;1147;104486;-40
2021/01/17 22:40:23;;;;;;;170.40;67.25;;;;;;;-12.53;77.66;99141.95;490599;1147;104508;-42
2021/01/17 22:50:27;;;;;;;200.60;79.07;;;;;;;-12.52;77.61;99139.34;489829;1148;104503;-42
2021/01/17 23:00:32;;;;;;;199.43;74.20;;;;;;;-12.55;78.23;99147.09;489869;1148;104926;-41
2021/01/17 23:10:36;;;;;;;193.67;77.60;;;;;;;-12.59;78.12;99142.22;490026;1148;104893;-42
2021/01/17 23:20:41;;;;;;;164.27;64.57;;;;;;;-12.52;77.90;99131.69;490000;1148;104434;-40
2021/01/17 23:30:46;;;;;;;191.60;70.00;;;;;;;-12.42;78.60;99114.23;489752;1148;104519;-43
2021/01/17 23:40:50;;;;;;;181.95;70.10;;;;;;;-12.32;78.51;99105.23;489879;1148;104511;-40
2021/01/17 23:50:55;;;;;;;151.90;58.43;;;;;;;-12.09;78.72;99094.72;489654;1148;104898;-41
